createdAt,value
2023-05-17T00:01:38.276Z,11.93
2023-05-17T00:04:06.441Z,11.87
2023-05-17T00:06:35.049Z,11.83
2023-05-17T00:09:03.239Z,11.87
2023-05-17T00:11:32.653Z,11.77
2023-05-17T00:14:00.548Z,11.87
2023-05-17T00:16:32.851Z,11.86
2023-05-17T00:19:05.427Z,11.86
2023-05-17T00:21:33.527Z,11.84
2023-05-17T00:24:01.510Z,11.83
2023-05-17T00:26:29.533Z,11.82
2023-05-17T00:28:58.893Z,11.77
2023-05-17T00:31:26.739Z,11.79
2023-05-17T00:33:55.125Z,11.73
2023-05-17T00:36:23.009Z,11.78
2023-05-17T00:38:50.776Z,11.70
2023-05-17T00:41:18.661Z,11.72
2023-05-17T00:43:46.499Z,11.75
2023-05-17T00:46:16.171Z,11.81
2023-05-17T00:48:44.270Z,11.78
2023-05-17T00:51:13.269Z,11.76
2023-05-17T00:53:41.116Z,11.74
2023-05-17T00:56:09.032Z,11.82
2023-05-17T00:58:38.136Z,11.85
2023-05-17T01:01:06.151Z,11.84
2023-05-17T01:03:35.463Z,11.84
2023-05-17T01:06:03.612Z,11.77
2023-05-17T01:08:31.575Z,11.73
2023-05-17T01:11:08.010Z,11.75
2023-05-17T01:13:43.565Z,11.74
2023-05-17T01:16:17.296Z,11.70
2023-05-17T01:18:53.785Z,11.73
2023-05-17T01:21:36.568Z,11.80
2023-05-17T01:24:17.951Z,11.82
2023-05-17T01:26:50.800Z,11.82
2023-05-17T01:29:23.306Z,11.85
2023-05-17T01:31:51.260Z,11.83
2023-05-17T01:34:26.345Z,11.83
2023-05-17T01:36:54.297Z,11.77
2023-05-17T01:39:22.342Z,11.66
2023-05-17T01:42:01.011Z,11.72
2023-05-17T01:44:38.379Z,11.75
2023-05-17T01:47:13.100Z,11.67
2023-05-17T01:49:42.649Z,11.62
2023-05-17T01:52:17.264Z,11.55
2023-05-17T01:54:48.833Z,11.66
2023-05-17T01:57:22.416Z,11.68
2023-05-17T01:59:52.880Z,11.65
2023-05-17T02:02:22.690Z,11.64
2023-05-17T02:04:51.642Z,11.59
2023-05-17T02:07:19.588Z,11.57
2023-05-17T02:09:47.585Z,11.54
2023-05-17T02:12:15.361Z,11.58
2023-05-17T02:14:44.738Z,11.56
2023-05-17T02:17:13.486Z,11.55
2023-05-17T02:19:41.354Z,11.53
2023-05-17T02:22:09.134Z,11.52
2023-05-17T02:24:37.641Z,11.55
2023-05-17T02:27:05.871Z,11.53
2023-05-17T02:29:34.707Z,11.62
2023-05-17T02:32:04.159Z,11.62
2023-05-17T02:34:32.055Z,11.64
2023-05-17T02:36:59.837Z,11.62
2023-05-17T02:39:27.763Z,11.62
2023-05-17T02:41:55.613Z,11.59
2023-05-17T02:44:23.629Z,11.54
2023-05-17T02:46:51.485Z,11.48
2023-05-17T02:49:20.627Z,11.42
2023-05-17T02:51:48.432Z,11.44
2023-05-17T02:54:16.260Z,11.57
2023-05-17T02:56:44.066Z,11.54
2023-05-17T02:59:12.036Z,11.57
2023-05-17T03:01:39.824Z,11.58
2023-05-17T03:04:07.757Z,11.66
2023-05-17T03:06:38.513Z,11.68
2023-05-17T03:09:06.967Z,11.65
2023-05-17T03:11:35.297Z,11.62
2023-05-17T03:14:03.126Z,11.67
2023-05-17T03:16:31.024Z,11.64
2023-05-17T03:18:59.559Z,11.67
2023-05-17T03:21:27.512Z,11.62
2023-05-17T03:23:56.740Z,11.63
2023-05-17T03:26:25.050Z,11.62
2023-05-17T03:28:52.848Z,11.63
2023-05-17T03:31:20.795Z,11.73
2023-05-17T03:33:48.701Z,11.73
2023-05-17T03:36:16.643Z,11.71
2023-05-17T03:38:44.413Z,11.74
2023-05-17T03:41:14.040Z,11.85
2023-05-17T03:43:41.898Z,11.81
2023-05-17T03:46:09.845Z,11.86
2023-05-17T03:48:37.708Z,11.83
2023-05-17T03:51:05.936Z,11.87
2023-05-17T03:53:33.705Z,11.81
2023-05-17T03:56:01.561Z,11.92
2023-05-17T03:58:30.751Z,11.92
2023-05-17T04:00:58.492Z,11.95
2023-05-17T04:03:26.553Z,11.94
2023-05-17T04:05:54.357Z,11.95
2023-05-17T04:08:22.171Z,11.93
2023-05-17T04:10:49.953Z,12.02
2023-05-17T04:13:17.769Z,12.18
2023-05-17T04:15:46.912Z,12.43
2023-05-17T04:18:14.836Z,12.51
2023-05-17T04:20:43.614Z,12.56
2023-05-17T04:23:11.431Z,12.57
2023-05-17T04:25:39.350Z,12.47
2023-05-17T04:28:07.181Z,12.45
2023-05-17T04:30:35.049Z,12.43
2023-05-17T04:33:04.409Z,12.44
2023-05-17T04:35:32.249Z,12.51
2023-05-17T04:38:00.047Z,12.45
2023-05-17T04:40:28.484Z,12.47
2023-05-17T04:42:56.298Z,12.62
2023-05-17T04:45:24.087Z,12.74
2023-05-17T04:47:52.870Z,12.77
2023-05-17T04:50:22.078Z,12.93
2023-05-17T04:52:50.180Z,12.91
2023-05-17T04:55:18.074Z,12.97
2023-05-17T04:57:45.910Z,12.93
2023-05-17T05:00:15.472Z,12.85
2023-05-17T05:02:43.507Z,12.82
2023-05-17T05:05:12.150Z,12.76
2023-05-17T05:07:41.498Z,12.82
2023-05-17T05:10:09.993Z,12.79
2023-05-17T05:12:38.673Z,12.83
2023-05-17T05:15:07.516Z,12.78
2023-05-17T05:17:35.403Z,12.71
2023-05-17T05:20:04.207Z,12.58
2023-05-17T05:22:32.187Z,12.44
2023-05-17T05:25:01.560Z,12.35
2023-05-17T05:27:29.397Z,12.27
2023-05-17T05:29:57.325Z,12.12
2023-05-17T05:32:25.278Z,12.03
2023-05-17T05:34:53.085Z,11.92
2023-05-17T05:37:20.909Z,11.76
2023-05-17T05:39:48.797Z,11.59
2023-05-17T05:42:17.922Z,11.54
2023-05-17T05:44:45.904Z,11.43
2023-05-17T05:47:13.798Z,11.32
2023-05-17T05:49:41.700Z,11.32
2023-05-17T05:52:11.834Z,11.34
2023-05-17T05:54:39.589Z,11.25
2023-05-17T05:57:07.470Z,11.20
2023-05-17T05:59:36.657Z,11.20
2023-05-17T06:02:04.801Z,11.21
2023-05-17T06:04:43.934Z,11.24
2023-05-17T06:07:13.639Z,11.31
2023-05-17T06:09:42.071Z,11.43
2023-05-17T06:12:10.111Z,11.53
2023-05-17T06:14:39.393Z,11.61
2023-05-17T06:17:07.234Z,11.65
2023-05-17T06:19:35.173Z,11.70
2023-05-17T06:22:03.241Z,11.69
2023-05-17T06:24:31.218Z,11.68
2023-05-17T06:26:59.095Z,11.76
2023-05-17T06:29:27.427Z,11.73
2023-05-17T06:31:58.118Z,11.94
2023-05-17T06:34:25.933Z,12.01
2023-05-17T06:36:53.881Z,12.08
2023-05-17T06:39:21.616Z,12.18
2023-05-17T06:41:49.346Z,12.21
2023-05-17T06:44:17.209Z,12.30
2023-05-17T06:46:45.051Z,12.21
2023-05-17T06:49:14.190Z,12.35
2023-05-17T06:51:41.973Z,12.43
2023-05-17T06:54:09.715Z,12.82
2023-05-17T06:56:37.717Z,13.12
2023-05-17T06:59:05.539Z,13.21
2023-05-17T07:01:33.362Z,13.32
2023-05-17T07:04:01.329Z,13.19
2023-05-17T07:06:31.378Z,13.31
2023-05-17T07:08:59.192Z,13.62
2023-05-17T07:11:27.030Z,14.14
2023-05-17T07:13:54.877Z,14.30
2023-05-17T07:16:22.632Z,14.33
2023-05-17T07:18:50.540Z,14.34
2023-05-17T07:21:18.466Z,14.91
2023-05-17T07:23:47.684Z,15.31
2023-05-17T07:26:15.494Z,15.67
2023-05-17T07:28:44.270Z,15.91
2023-05-17T07:31:12.027Z,15.69
2023-05-17T07:33:39.933Z,15.35
2023-05-17T07:36:08.511Z,14.69
2023-05-17T07:38:36.777Z,14.17
2023-05-17T07:41:09.553Z,13.41
2023-05-17T07:43:38.500Z,13.28
2023-05-17T07:46:08.226Z,12.85
2023-05-17T07:48:36.162Z,12.78
2023-05-17T07:51:04.035Z,12.75
2023-05-17T07:53:31.836Z,12.41
2023-05-17T07:55:59.675Z,12.04
2023-05-17T07:58:28.802Z,11.94
2023-05-17T08:00:56.636Z,11.84
2023-05-17T08:03:24.577Z,11.92
2023-05-17T08:05:52.470Z,11.96
2023-05-17T08:08:21.126Z,12.10
2023-05-17T08:10:49.756Z,12.35
2023-05-17T08:13:17.557Z,12.66
2023-05-17T08:15:46.744Z,12.96
2023-05-17T08:18:14.663Z,12.96
2023-05-17T08:20:43.277Z,12.79
2023-05-17T08:23:11.184Z,12.52
2023-05-17T08:25:39.049Z,12.00
2023-05-17T08:28:06.974Z,11.81
2023-05-17T08:30:34.917Z,11.67
2023-05-17T08:33:04.384Z,11.41
2023-05-17T08:35:32.584Z,11.33
2023-05-17T08:38:00.506Z,11.16
2023-05-17T08:40:29.517Z,10.91
2023-05-17T08:42:58.068Z,10.69
2023-05-17T08:45:28.090Z,10.46
2023-05-17T08:47:56.932Z,10.34
2023-05-17T08:50:30.460Z,10.40
2023-05-17T08:52:59.953Z,10.46
2023-05-17T08:55:30.715Z,10.63
2023-05-17T08:57:58.611Z,10.31
2023-05-17T09:00:28.312Z,10.43
2023-05-17T09:02:57.159Z,10.37
2023-05-17T09:05:26.530Z,10.35
2023-05-17T09:07:55.098Z,10.21
2023-05-17T09:10:23.052Z,10.11
2023-05-17T09:12:51.073Z,10.09
2023-05-17T09:15:20.148Z,9.98
2023-05-17T09:17:53.436Z,9.91
2023-05-17T09:20:34.710Z,9.86
2023-05-17T09:23:02.899Z,9.83
2023-05-17T09:25:31.576Z,9.90
2023-05-17T09:28:02.846Z,9.84
2023-05-17T09:30:31.509Z,9.89
2023-05-17T09:33:06.150Z,9.86
2023-05-17T09:35:37.679Z,9.68
2023-05-17T09:38:08.697Z,9.49
2023-05-17T09:40:40.130Z,9.50
2023-05-17T09:43:08.310Z,9.48
2023-05-17T09:45:37.441Z,9.46
2023-05-17T09:48:13.894Z,9.30
2023-05-17T09:50:47.448Z,9.00
2023-05-17T09:53:29.042Z,8.74
2023-05-17T09:55:58.635Z,8.60
2023-05-17T09:58:28.358Z,8.38
2023-05-17T10:01:01.697Z,8.22
2023-05-17T10:03:33.275Z,8.05
2023-05-17T10:06:05.609Z,7.88
2023-05-17T10:08:34.736Z,7.81
2023-05-17T10:11:06.799Z,7.74
2023-05-17T10:13:37.142Z,7.76
2023-05-17T10:16:05.463Z,7.65
2023-05-17T10:18:34.230Z,7.71
2023-05-17T10:21:03.882Z,7.72
2023-05-17T10:23:32.651Z,7.69
2023-05-17T10:26:00.983Z,7.70
2023-05-17T10:28:31.641Z,7.74
2023-05-17T10:31:00.850Z,7.63
2023-05-17T10:33:28.984Z,7.45
2023-05-17T10:35:57.272Z,7.38
2023-05-17T10:38:35.302Z,7.30
2023-05-17T10:41:10.031Z,7.26
2023-05-17T10:43:39.132Z,7.32
2023-05-17T10:46:15.001Z,7.30
2023-05-17T10:48:43.191Z,7.27
2023-05-17T10:51:12.393Z,7.18
2023-05-17T10:54:12.854Z,7.22
2023-05-17T10:56:42.668Z,7.19
2023-05-17T10:59:21.759Z,7.21
2023-05-17T11:01:52.672Z,7.21
2023-05-17T11:04:26.191Z,7.15
2023-05-17T11:06:57.365Z,7.03
2023-05-17T11:09:26.770Z,7.20
2023-05-17T11:12:10.986Z,7.31
2023-05-17T11:14:48.906Z,7.34
2023-05-17T11:17:17.972Z,7.38
2023-05-17T11:20:32.917Z,7.52
2023-05-17T11:23:04.209Z,7.57
2023-05-17T11:25:36.055Z,7.75
2023-05-17T11:28:20.615Z,7.74
2023-05-17T11:30:53.587Z,7.88
2023-05-17T11:33:32.941Z,7.93
2023-05-17T11:36:07.436Z,7.92
2023-05-17T11:38:35.701Z,7.91
2023-05-17T11:43:53.431Z,7.63
2023-05-17T11:46:23.136Z,7.59
2023-05-17T11:48:54.715Z,7.51
2023-05-17T11:51:24.889Z,7.32
2023-05-17T11:53:55.923Z,7.23
2023-05-17T11:56:35.521Z,7.18
2023-05-17T11:59:10.347Z,7.10
2023-05-17T12:01:46.109Z,7.12
2023-05-17T12:04:14.106Z,7.16
2023-05-17T12:06:42.552Z,7.07
2023-05-17T12:09:13.509Z,7.11
2023-05-17T12:11:43.363Z,7.07
2023-05-17T12:14:11.481Z,7.18
2023-05-17T12:16:47.577Z,7.07
2023-05-17T12:19:20.163Z,7.06
2023-05-17T12:21:48.506Z,7.12
2023-05-17T12:24:16.884Z,7.07
2023-05-17T12:26:47.020Z,7.01
2023-05-17T12:29:17.834Z,6.96
2023-05-17T12:31:49.597Z,6.99
2023-05-17T12:34:19.294Z,6.92
2023-05-17T12:36:47.678Z,6.90
2023-05-17T12:39:18.068Z,6.91
2023-05-17T12:41:48.902Z,6.92
2023-05-17T12:44:17.072Z,6.81
2023-05-17T12:46:45.701Z,6.83
2023-05-17T12:49:13.796Z,6.97
2023-05-17T12:51:43.640Z,7.06
2023-05-17T12:54:12.701Z,7.07
2023-05-17T12:56:43.006Z,7.15
2023-05-17T12:59:14.824Z,7.02
2023-05-17T13:01:44.870Z,6.92
2023-05-17T13:04:13.567Z,6.97
2023-05-17T13:06:46.812Z,6.95
2023-05-17T13:09:16.510Z,6.80
2023-05-17T13:11:44.350Z,6.77
2023-05-17T13:14:13.646Z,6.68
2023-05-17T13:16:42.809Z,6.61
2023-05-17T13:19:14.876Z,6.58
2023-05-17T13:21:42.713Z,6.63
2023-05-17T13:24:11.051Z,6.67
2023-05-17T13:26:39.049Z,6.54
2023-05-17T13:29:07.011Z,6.57
2023-05-17T13:31:36.247Z,6.47
2023-05-17T13:34:04.291Z,6.47
2023-05-17T13:36:32.190Z,6.43
2023-05-17T13:39:01.957Z,6.38
2023-05-17T13:41:29.849Z,6.38
2023-05-17T13:43:58.322Z,6.62
2023-05-17T13:46:26.478Z,6.61
2023-05-17T13:48:56.757Z,6.68
2023-05-17T13:51:25.509Z,6.78
2023-05-17T13:53:53.382Z,6.81
2023-05-17T13:56:22.348Z,6.87
2023-05-17T13:58:50.607Z,6.88
2023-05-17T14:01:18.940Z,7.11
2023-05-17T14:03:46.999Z,7.26
2023-05-17T14:06:16.154Z,7.55
2023-05-17T14:08:44.982Z,7.57
2023-05-17T14:11:12.928Z,7.47
2023-05-17T14:13:41.653Z,7.41
2023-05-17T14:16:09.442Z,7.40
2023-05-17T14:18:38.534Z,7.35
2023-05-17T14:21:08.113Z,7.31
2023-05-17T14:23:37.717Z,7.28
2023-05-17T14:26:07.448Z,7.26
2023-05-17T14:28:38.002Z,7.39
2023-05-17T14:31:07.467Z,7.60
2023-05-17T14:33:36.380Z,7.67
2023-05-17T14:36:06.659Z,7.66
2023-05-17T14:38:34.537Z,7.69
2023-05-17T14:41:06.713Z,7.67
2023-05-17T14:43:34.693Z,7.62
2023-05-17T14:46:02.541Z,7.53
2023-05-17T14:48:31.068Z,7.28
2023-05-17T14:50:58.896Z,7.35
2023-05-17T14:53:29.165Z,7.35
2023-05-17T14:55:58.179Z,7.48
2023-05-17T14:58:27.444Z,7.55
2023-05-17T15:01:04.716Z,7.66
2023-05-17T15:03:34.266Z,7.79
2023-05-17T15:06:05.104Z,7.87
2023-05-17T15:08:35.212Z,7.85
2023-05-17T15:11:03.188Z,7.78
2023-05-17T15:13:32.412Z,7.65
2023-05-17T15:16:01.010Z,7.64
2023-05-17T15:18:28.872Z,7.51
2023-05-17T15:20:56.599Z,7.53
2023-05-17T15:23:24.387Z,7.55
2023-05-17T15:25:52.275Z,7.65
2023-05-17T15:28:21.187Z,7.86
2023-05-17T15:31:00.014Z,7.92
2023-05-17T15:33:28.208Z,8.07
2023-05-17T15:35:56.053Z,8.34
2023-05-17T15:38:23.890Z,8.57
2023-05-17T15:41:02.622Z,8.81
2023-05-17T15:43:31.230Z,8.83
2023-05-17T15:46:00.337Z,9.00
2023-05-17T15:48:29.228Z,8.89
2023-05-17T15:50:57.674Z,8.89
2023-05-17T15:53:27.181Z,8.78
2023-05-17T15:55:55.197Z,8.85
2023-05-17T15:58:24.764Z,8.80
2023-05-17T16:00:52.538Z,8.81
2023-05-17T16:03:22.112Z,8.74
2023-05-17T16:05:50.055Z,8.71
2023-05-17T16:08:17.969Z,8.75
2023-05-17T16:10:45.975Z,9.08
2023-05-17T16:13:13.966Z,9.49
2023-05-17T16:15:42.271Z,9.91
2023-05-17T16:18:10.856Z,10.00
2023-05-17T16:20:40.334Z,9.98
2023-05-17T16:23:08.601Z,10.14
2023-05-17T16:25:37.606Z,10.46
2023-05-17T16:28:05.433Z,10.88
2023-05-17T16:30:33.291Z,11.12
2023-05-17T16:33:01.328Z,10.95
2023-05-17T16:35:29.483Z,10.78
2023-05-17T16:37:58.785Z,10.75
2023-05-17T16:40:29.444Z,10.64
2023-05-17T16:42:57.891Z,10.14
2023-05-17T16:45:25.670Z,10.01
2023-05-17T16:47:53.504Z,9.99
2023-05-17T16:50:21.715Z,9.88
2023-05-17T16:52:49.599Z,9.60
2023-05-17T16:55:19.065Z,9.45
2023-05-17T16:57:46.866Z,9.21
2023-05-17T17:00:15.504Z,8.93
2023-05-17T17:02:43.553Z,8.64
2023-05-17T17:05:11.787Z,8.51
2023-05-17T17:07:39.689Z,8.41
2023-05-17T17:10:08.408Z,8.34
2023-05-17T17:12:37.538Z,8.43
2023-05-17T17:15:07.851Z,8.38
2023-05-17T17:17:36.136Z,8.26
2023-05-17T17:20:05.534Z,8.29
2023-05-17T17:22:33.369Z,8.25
2023-05-17T17:25:01.352Z,8.20
2023-05-17T17:27:29.201Z,8.19
2023-05-17T17:29:58.348Z,8.18
2023-05-17T17:32:27.009Z,8.13
2023-05-17T17:34:55.007Z,8.16
2023-05-17T17:37:23.012Z,8.13
2023-05-17T17:39:50.830Z,8.07
2023-05-17T17:42:18.793Z,7.96
2023-05-17T17:44:47.014Z,8.02
2023-05-17T17:47:16.350Z,7.98
2023-05-17T17:49:44.173Z,8.00
2023-05-17T17:52:12.093Z,7.91
2023-05-17T17:54:39.918Z,8.01
2023-05-17T17:57:08.202Z,8.03
2023-05-17T17:59:36.040Z,8.03
2023-05-17T18:02:03.861Z,8.01
2023-05-17T18:04:33.073Z,7.99
2023-05-17T18:07:02.201Z,7.90
2023-05-17T18:09:30.035Z,7.95
2023-05-17T18:11:59.525Z,7.90
2023-05-17T18:14:27.328Z,7.90
2023-05-17T18:16:55.212Z,7.82
2023-05-17T18:19:23.179Z,7.81
2023-05-17T18:21:52.362Z,7.73
2023-05-17T18:24:20.374Z,7.62
2023-05-17T18:26:48.280Z,7.56
2023-05-17T18:29:16.064Z,7.47
2023-05-17T18:31:44.043Z,7.50
2023-05-17T18:34:12.400Z,7.51
2023-05-17T18:36:40.173Z,7.52
2023-05-17T18:39:09.323Z,7.50
2023-05-17T18:41:37.104Z,7.46
2023-05-17T18:44:04.927Z,7.49
2023-05-17T18:46:33.077Z,7.37
2023-05-17T18:49:00.883Z,7.27
2023-05-17T18:51:28.944Z,7.24
2023-05-17T18:53:56.968Z,7.23
2023-05-17T18:56:26.730Z,7.27
2023-05-17T18:58:55.401Z,7.23
2023-05-17T19:01:23.446Z,7.19
2023-05-17T19:03:55.039Z,7.17
2023-05-17T19:06:23.438Z,7.06
2023-05-17T19:08:51.916Z,7.15
2023-05-17T19:11:19.798Z,7.00
2023-05-17T19:13:49.159Z,6.95
2023-05-17T19:16:18.187Z,6.83
2023-05-17T19:18:46.144Z,6.73
2023-05-17T19:21:14.032Z,6.68
2023-05-17T19:23:41.914Z,6.61
2023-05-17T19:26:09.765Z,6.49
2023-05-17T19:28:37.640Z,6.47
2023-05-17T19:31:08.260Z,6.57
2023-05-17T19:33:37.705Z,6.56
2023-05-17T19:36:06.486Z,6.63
2023-05-17T19:38:34.340Z,6.56
2023-05-17T19:41:03.838Z,6.48
2023-05-17T19:43:35.598Z,6.55
2023-05-17T19:46:03.504Z,6.60
2023-05-17T19:48:32.686Z,6.52
2023-05-17T19:51:00.506Z,6.39
2023-05-17T19:53:36.912Z,6.32
2023-05-17T19:56:12.064Z,6.25
2023-05-17T19:58:40.034Z,6.29
2023-05-17T20:01:07.795Z,6.32
2023-05-17T20:03:37.058Z,6.39
2023-05-17T20:06:05.185Z,6.43
2023-05-17T20:08:33.007Z,6.47
2023-05-17T20:11:01.003Z,6.31
2023-05-17T20:13:29.623Z,6.27
2023-05-17T20:15:57.592Z,6.26
2023-05-17T20:18:27.623Z,6.20
2023-05-17T20:20:56.862Z,6.13
2023-05-17T20:23:24.619Z,6.04
2023-05-17T20:25:52.509Z,5.93
2023-05-17T20:28:20.686Z,5.80
2023-05-17T20:30:48.498Z,5.66
2023-05-17T20:33:16.378Z,5.67
2023-05-17T20:35:44.173Z,5.76
2023-05-17T20:38:13.270Z,5.76
2023-05-17T20:40:41.990Z,5.72
2023-05-17T20:43:09.910Z,5.63
2023-05-17T20:45:37.778Z,5.71
2023-05-17T20:48:05.639Z,5.76
2023-05-17T20:50:33.510Z,5.69
2023-05-17T20:53:01.372Z,5.82
2023-05-17T20:55:30.624Z,5.92
2023-05-17T20:57:58.495Z,5.89
2023-05-17T21:00:26.307Z,5.87
2023-05-17T21:02:54.204Z,6.00
2023-05-17T21:05:22.301Z,5.95
2023-05-17T21:07:50.527Z,5.93
2023-05-17T21:10:18.940Z,5.94
2023-05-17T21:12:48.211Z,5.90
2023-05-17T21:15:17.499Z,5.85
2023-05-17T21:17:45.573Z,5.80
2023-05-17T21:20:13.968Z,5.78
2023-05-17T21:22:41.871Z,5.71
2023-05-17T21:25:10.681Z,5.69
2023-05-17T21:27:38.481Z,5.68
2023-05-17T21:30:09.127Z,5.67
2023-05-17T21:32:37.171Z,5.58
2023-05-17T21:35:05.398Z,5.60
2023-05-17T21:37:33.401Z,5.58
2023-05-17T21:40:01.339Z,5.45
2023-05-17T21:42:29.175Z,5.42
2023-05-17T21:44:57.492Z,5.25
2023-05-17T21:47:26.893Z,5.22
2023-05-17T21:49:55.486Z,5.03
2023-05-17T21:52:23.308Z,4.95
2023-05-17T21:54:51.092Z,4.90
2023-05-17T21:57:20.941Z,4.85
2023-05-17T21:59:49.012Z,4.76
2023-05-17T22:02:16.955Z,4.77
2023-05-17T22:04:46.156Z,4.79
2023-05-17T22:07:14.173Z,4.74
2023-05-17T22:09:41.991Z,4.80
2023-05-17T22:12:12.253Z,4.88
2023-05-17T22:14:44.540Z,4.81
2023-05-17T22:17:12.361Z,4.83
2023-05-17T22:19:41.706Z,4.81
2023-05-17T22:22:11.046Z,4.63
2023-05-17T22:24:39.264Z,4.62
2023-05-17T22:27:07.329Z,4.55
2023-05-17T22:29:35.150Z,4.46
2023-05-17T22:32:02.951Z,4.37
2023-05-17T22:34:30.931Z,4.24
2023-05-17T22:36:58.871Z,4.16
2023-05-17T22:39:28.017Z,4.16
2023-05-17T22:41:55.946Z,4.14
2023-05-17T22:44:24.065Z,4.03
2023-05-17T22:46:52.067Z,3.97
2023-05-17T22:49:20.335Z,3.86
2023-05-17T22:51:51.899Z,3.75
2023-05-17T22:54:19.779Z,3.66
2023-05-17T22:56:48.958Z,3.58
2023-05-17T22:59:16.766Z,3.49
2023-05-17T23:01:44.746Z,3.41
2023-05-17T23:04:12.649Z,3.34
2023-05-17T23:06:40.521Z,3.30
2023-05-17T23:09:08.575Z,3.22
2023-05-17T23:11:36.603Z,3.19
2023-05-17T23:14:05.890Z,3.20
2023-05-17T23:16:35.985Z,3.26
2023-05-17T23:19:04.053Z,3.35
2023-05-17T23:21:33.297Z,3.27
2023-05-17T23:24:01.149Z,3.13
2023-05-17T23:26:29.476Z,3.09
2023-05-17T23:28:57.384Z,3.02
2023-05-17T23:31:26.793Z,3.07
2023-05-17T23:33:54.576Z,3.07
2023-05-17T23:36:22.380Z,3.00
2023-05-17T23:38:50.139Z,2.93
2023-05-17T23:41:19.750Z,2.91
2023-05-17T23:43:48.065Z,3.09
2023-05-17T23:46:19.931Z,3.15
2023-05-17T23:48:51.108Z,3.16
2023-05-17T23:51:21.403Z,3.15
2023-05-17T23:53:51.958Z,3.09
2023-05-17T23:56:21.537Z,3.10
2023-05-17T23:58:49.408Z,3.09
